Time;durP1;ratioP1;P1;durP2;ratioP2;P2;SDS_P1;SDS_P2;PMS_P1;PMS_P2;Temp;Humidity;BMP_temperature;BMP_pressure;BME280_temperature;BME280_humidity;BME280_pressure;Samples;Min_cycle;Max_cycle;Signal;HPM_P1;HPM_P2
2022/06/19 00:01:04;;;;;;;24.52;4.80;;;;;;;22.90;50.91;98610.53;5125816;28;20090;-72
2022/06/19 00:03:55;;;;;;;23.35;4.90;;;;;;;22.68;51.47;98601.31;5142887;28;20094;-73
2022/06/19 00:06:45;;;;;;;20.60;4.18;;;;;;;22.49;53.11;98604.09;5140799;28;20062;-70
2022/06/19 00:09:35;;;;;;;27.65;4.60;;;;;;;22.39;53.71;98603.00;5141821;28;20050;-72
2022/06/19 00:12:26;;;;;;;20.88;5.15;;;;;;;22.24;53.92;98595.31;5128102;28;20122;-69
2022/06/19 00:15:17;;;;;;;14.68;4.25;;;;;;;22.20;54.26;98589.53;5142899;28;20051;-71
2022/06/19 00:18:07;;;;;;;20.05;5.43;;;;;;;22.18;54.77;98583.53;5142955;28;20106;-73
2022/06/19 00:21:01;;;;;;;15.25;4.88;;;;;;;22.20;54.63;98580.63;5142497;28;20094;-73
2022/06/19 00:23:51;;;;;;;22.83;4.28;;;;;;;22.08;54.37;98560.81;5141068;28;20497;-71
2022/06/19 00:26:42;;;;;;;24.02;4.65;;;;;;;22.34;52.75;98565.03;5129928;28;20629;-72
2022/06/19 00:29:32;;;;;;;25.08;4.63;;;;;;;22.15;53.18;98542.63;5142301;28;20556;-74
2022/06/19 00:32:25;;;;;;;20.42;4.78;;;;;;;22.24;53.49;98552.09;5138987;28;20058;-71
2022/06/19 00:35:15;;;;;;;20.60;4.90;;;;;;;22.10;53.96;98551.44;5139012;28;20049;-71
2022/06/19 00:38:05;;;;;;;22.35;4.57;;;;;;;22.02;54.30;98549.06;5137707;28;20137;-71
2022/06/19 00:40:57;;;;;;;26.10;4.47;;;;;;;21.94;53.66;98550.19;5140409;28;20062;-71
2022/06/19 00:43:59;;;;;;;20.58;4.38;;;;;;;21.83;54.58;98539.34;5140401;28;20046;-71
2022/06/19 00:46:52;;;;;;;19.05;4.68;;;;;;;21.87;54.17;98559.44;5136839;28;20061;-71
2022/06/19 00:50:26;;;;;;;22.42;5.13;;;;;;;21.85;55.87;98551.56;5138955;28;20425;-71
2022/06/19 00:53:29;;;;;;;22.23;5.78;;;;;;;21.90;56.80;98554.41;5138498;28;20490;-71
2022/06/19 00:56:20;;;;;;;24.27;5.73;;;;;;;21.83;55.68;98552.84;5135876;28;20054;-71
2022/06/19 00:59:11;;;;;;;24.95;5.28;;;;;;;21.79;57.04;98556.00;5138797;28;20426;-71
2022/06/19 01:02:03;;;;;;;34.75;5.88;;;;;;;22.02;56.01;98551.78;5141426;28;20176;-71
2022/06/19 01:04:55;;;;;;;20.83;5.72;;;;;;;21.95;55.99;98538.38;5142521;28;20043;-71
2022/06/19 01:07:46;;;;;;;19.52;5.07;;;;;;;21.88;55.42;98537.59;5133327;28;20144;-71
2022/06/19 01:10:41;;;;;;;17.30;5.10;;;;;;;21.90;55.46;98518.50;5143127;28;20435;-71
2022/06/19 01:13:32;;;;;;;20.73;5.72;;;;;;;21.93;55.95;98524.25;5141394;28;20062;-72
2022/06/19 01:16:24;;;;;;;26.85;5.50;;;;;;;21.67;55.93;98521.91;5141613;28;20137;-71
2022/06/19 01:19:21;;;;;;;19.75;5.63;;;;;;;21.56;56.17;98513.53;5143652;28;20081;-71
2022/06/19 01:22:25;;;;;;;26.70;5.72;;;;;;;21.51;56.06;98507.16;5142448;28;20429;-71
2022/06/19 01:25:22;;;;;;;18.50;5.13;;;;;;;21.36;55.92;98502.16;5131971;28;20109;-71
2022/06/19 01:31:48;;;;;;;26.02;5.40;;;;;;;21.31;55.87;98502.78;5129114;28;20410;-74
2022/06/19 01:34:41;;;;;;;28.52;5.30;;;;;;;21.43;56.93;98504.78;5142624;28;20050;-71
2022/06/19 01:37:33;;;;;;;16.33;5.28;;;;;;;21.31;56.86;98499.28;5129879;28;20112;-71
2022/06/19 01:40:30;;;;;;;29.08;5.90;;;;;;;21.21;57.26;98504.38;5139506;28;20098;-71
2022/06/19 01:43:21;;;;;;;21.27;5.40;;;;;;;21.15;57.41;98507.94;5137603;28;20063;-72
2022/06/19 01:46:12;;;;;;;21.10;5.13;;;;;;;21.09;58.01;98505.13;5141041;28;20219;-72
2022/06/19 01:49:03;;;;;;;29.65;5.85;;;;;;;21.05;58.25;98497.69;5141276;28;20060;-70
2022/06/19 01:51:53;;;;;;;20.35;5.20;;;;;;;21.05;58.89;98493.13;5142962;28;20052;-70
2022/06/19 01:54:53;;;;;;;24.17;5.90;;;;;;;21.07;59.36;98488.34;5142307;28;20050;-70
2022/06/19 01:57:50;;;;;;;27.40;5.78;;;;;;;20.95;59.09;98490.13;5142188;28;20063;-70
2022/06/19 02:00:43;;;;;;;20.10;5.57;;;;;;;20.78;59.49;98486.34;5141320;28;20113;-70
2022/06/19 02:03:39;;;;;;;18.50;5.50;;;;;;;20.69;59.99;98495.75;5142150;28;20128;-70
2022/06/19 02:06:50;;;;;;;18.08;5.40;;;;;;;20.58;60.20;98490.06;5140478;28;20302;-70
2022/06/19 02:09:40;;;;;;;17.23;5.38;;;;;;;20.84;60.49;98480.91;5141174;28;20112;-70
2022/06/19 02:12:32;;;;;;;21.05;5.75;;;;;;;21.09;58.97;98467.38;5140481;28;20070;-70
2022/06/19 02:15:22;;;;;;;17.73;5.40;;;;;;;20.77;59.99;98473.94;5141855;28;20416;-70
2022/06/19 02:18:18;;;;;;;19.00;6.05;;;;;;;20.66;59.79;98475.47;5142560;28;20089;-70
2022/06/19 02:21:14;;;;;;;23.25;5.53;;;;;;;20.50;60.62;98468.75;5133434;28;20065;-70
2022/06/19 02:24:07;;;;;;;24.13;5.70;;;;;;;20.49;60.72;98474.34;5137242;28;20054;-71
2022/06/19 02:26:57;;;;;;;20.55;6.00;;;;;;;20.54;61.04;98482.66;5136637;28;20058;-71
2022/06/19 02:29:47;;;;;;;24.67;7.10;;;;;;;20.54;61.73;98504.19;5141139;28;20077;-71
2022/06/19 02:32:42;;;;;;;20.25;7.18;;;;;;;20.51;63.38;98507.31;5139267;28;20130;-71
2022/06/19 02:35:33;;;;;;;26.60;6.50;;;;;;;20.38;63.63;98500.13;5141984;28;20061;-71
2022/06/19 02:38:23;;;;;;;22.38;6.85;;;;;;;20.81;62.25;98504.78;5140689;28;20061;-71
2022/06/19 02:41:22;;;;;;;26.75;5.97;;;;;;;20.99;60.94;98494.03;5140360;28;20149;-71
2022/06/19 02:44:12;;;;;;;26.73;6.75;;;;;;;20.69;61.03;98501.97;5132900;28;20050;-71
2022/06/19 02:47:04;;;;;;;24.25;6.10;;;;;;;20.69;60.71;98491.19;5138576;28;20069;-71
2022/06/19 02:49:54;;;;;;;27.60;6.03;;;;;;;20.65;60.51;98482.72;5141456;28;20081;-71
2022/06/19 02:52:45;;;;;;;24.92;6.68;;;;;;;20.54;59.18;98482.66;5139783;28;20050;-71
2022/06/19 02:55:35;;;;;;;23.45;5.78;;;;;;;20.52;60.22;98480.16;5136299;28;20062;-71
2022/06/19 02:58:25;;;;;;;27.25;6.25;;;;;;;20.57;59.61;98488.41;5138550;28;20572;-71
2022/06/19 03:01:15;;;;;;;27.45;6.78;;;;;;;20.65;60.42;98482.72;5140109;28;20132;-71
2022/06/19 03:04:16;;;;;;;25.30;7.32;;;;;;;20.62;60.01;98482.34;5141312;28;20344;-71
2022/06/19 03:07:07;;;;;;;21.48;6.78;;;;;;;20.65;60.24;98485.41;5128453;28;20081;-71
2022/06/19 03:09:57;;;;;;;16.42;6.28;;;;;;;20.57;60.21;98482.19;5141465;28;20065;-71
2022/06/19 03:12:47;;;;;;;21.42;7.18;;;;;;;20.50;61.08;98474.16;5139956;28;20058;-71
2022/06/19 03:15:38;;;;;;;20.77;6.75;;;;;;;20.49;60.71;98468.97;5139691;28;20197;-71
2022/06/19 03:18:29;;;;;;;26.05;7.13;;;;;;;20.35;61.67;98466.38;5140994;28;20065;-71
2022/06/19 03:21:19;;;;;;;26.40;7.20;;;;;;;20.39;61.29;98472.16;5140774;28;20713;-71
2022/06/19 03:24:10;;;;;;;30.38;6.10;;;;;;;20.30;61.05;98470.81;5139815;28;20109;-71
2022/06/19 03:27:00;;;;;;;23.48;6.18;;;;;;;20.32;60.94;98464.13;5140696;28;20050;-71
2022/06/19 03:29:50;;;;;;;18.20;6.10;;;;;;;20.51;60.96;98458.84;5139271;28;20058;-71
2022/06/19 03:32:41;;;;;;;26.13;6.60;;;;;;;20.40;60.62;98458.50;5140412;28;20422;-71
2022/06/19 03:35:31;;;;;;;15.98;5.63;;;;;;;20.24;60.26;98466.28;5139975;28;20055;-71
2022/06/19 03:38:21;;;;;;;29.63;7.18;;;;;;;20.15;61.45;98466.53;5141080;28;20057;-73
2022/06/19 03:41:12;;;;;;;22.95;5.40;;;;;;;20.16;60.56;98465.53;5129145;28;20177;-69
2022/06/19 03:44:04;;;;;;;24.17;6.03;;;;;;;20.18;60.96;98473.38;5140822;28;20074;-71
2022/06/19 03:46:54;;;;;;;23.30;6.28;;;;;;;20.46;60.92;98467.53;5136598;28;20073;-69
2022/06/19 03:49:44;;;;;;;21.65;5.65;;;;;;;20.39;60.77;98461.38;5138662;28;20101;-69
2022/06/19 03:52:34;;;;;;;20.00;6.00;;;;;;;20.48;60.49;98456.56;5139100;28;20055;-69
2022/06/19 03:55:24;;;;;;;25.10;6.47;;;;;;;20.58;60.28;98456.91;5140513;28;20058;-70
2022/06/19 03:58:14;;;;;;;22.27;5.85;;;;;;;20.37;60.23;98439.25;5140674;28;20131;-73
2022/06/19 04:01:04;;;;;;;21.40;5.35;;;;;;;20.47;59.90;98454.91;5126833;28;20051;-72
2022/06/19 04:03:56;;;;;;;21.10;5.38;;;;;;;20.60;59.41;98449.44;5139203;28;20043;-70
2022/06/19 04:06:46;;;;;;;16.83;5.85;;;;;;;20.77;58.84;98444.31;5139291;28;20498;-70
2022/06/19 04:09:37;;;;;;;21.98;5.10;;;;;;;20.91;58.22;98435.03;5141072;28;20055;-72
2022/06/19 04:12:27;;;;;;;17.40;5.35;;;;;;;20.99;58.09;98441.97;5137322;28;20484;-70
2022/06/19 04:15:18;;;;;;;25.55;5.13;;;;;;;21.00;57.71;98447.16;5138845;28;20109;-72
2022/06/19 04:18:08;;;;;;;21.13;5.30;;;;;;;20.98;58.51;98438.47;5137973;28;20077;-70
2022/06/19 04:21:00;;;;;;;20.65;4.90;;;;;;;21.08;58.57;98443.34;5132022;28;20065;-73
2022/06/19 04:23:54;;;;;;;24.85;5.55;;;;;;;21.11;58.45;98451.78;5141618;28;20446;-71
2022/06/19 04:26:44;;;;;;;21.70;5.28;;;;;;;21.16;58.46;98452.97;5140778;28;20057;-71
2022/06/19 04:29:35;;;;;;;17.20;4.93;;;;;;;21.31;57.68;98466.91;5139885;28;20145;-71
2022/06/19 04:32:25;;;;;;;19.48;4.55;;;;;;;21.36;58.01;98477.88;5140386;28;20374;-70
2022/06/19 04:35:15;;;;;;;18.15;4.85;;;;;;;21.41;57.24;98461.84;5141663;28;20043;-71
2022/06/19 04:38:05;;;;;;;15.63;5.10;;;;;;;21.58;57.41;98464.72;5139848;28;20047;-70
2022/06/19 04:40:56;;;;;;;17.83;4.72;;;;;;;21.57;57.80;98461.22;5134705;28;20054;-70
2022/06/19 04:43:47;;;;;;;18.02;4.60;;;;;;;21.48;58.64;98442.88;5142496;28;20051;-70
2022/06/19 04:46:37;;;;;;;17.95;5.20;;;;;;;21.76;56.75;98453.91;5140654;28;20058;-71
2022/06/19 04:49:28;;;;;;;16.42;4.38;;;;;;;21.81;55.99;98443.22;5142177;28;20281;-71
2022/06/19 04:52:18;;;;;;;19.90;5.10;;;;;;;21.79;56.84;98453.44;5138115;28;20058;-71
2022/06/19 04:55:13;;;;;;;18.98;5.03;;;;;;;22.12;55.46;98451.28;5135549;28;20077;-70
2022/06/19 04:58:04;;;;;;;11.57;4.78;;;;;;;21.60;57.10;98453.72;5137118;28;20046;-70
2022/06/19 05:00:54;;;;;;;21.88;4.40;;;;;;;22.22;56.10;98462.41;5136626;28;20058;-71
2022/06/19 05:03:45;;;;;;;18.55;4.60;;;;;;;22.18;55.25;98453.09;5140921;28;20125;-73
2022/06/19 05:06:35;;;;;;;22.83;5.10;;;;;;;22.36;55.48;98463.00;5136286;28;20110;-72
2022/06/19 05:09:25;;;;;;;16.55;4.65;;;;;;;22.48;55.73;98459.28;5140829;28;20505;-73
2022/06/19 05:12:15;;;;;;;19.65;4.43;;;;;;;22.50;56.21;98461.72;5137201;28;20062;-72
2022/06/19 05:15:06;;;;;;;18.60;4.30;;;;;;;22.70;56.00;98458.69;5139771;28;20050;-71
2022/06/19 05:17:56;;;;;;;15.43;4.82;;;;;;;22.75;56.06;98448.00;5137632;28;20576;-70
2022/06/19 05:20:55;;;;;;;20.95;4.85;;;;;;;22.99;56.12;98443.41;5137186;28;20062;-70
2022/06/19 05:23:48;;;;;;;18.98;5.15;;;;;;;22.95;56.25;98448.47;5137628;28;20101;-71
2022/06/19 05:26:37;;;;;;;19.95;5.38;;;;;;;22.91;55.91;98450.00;5138714;28;20117;-73
2022/06/19 05:29:28;;;;;;;20.45;5.10;;;;;;;23.20;57.15;98466.28;5139046;28;20145;-72
2022/06/19 05:32:25;;;;;;;18.27;4.70;;;;;;;23.24;57.38;98467.47;5139774;28;20070;-70
2022/06/19 05:35:15;;;;;;;15.70;4.90;;;;;;;23.21;57.52;98470.63;5140390;28;20121;-70
2022/06/19 05:38:06;;;;;;;20.65;4.97;;;;;;;23.48;55.48;98462.81;5137958;28;20244;-70
2022/06/19 05:40:58;;;;;;;27.50;5.00;;;;;;;23.56;55.90;98456.19;5141919;28;20233;-71
2022/06/19 05:43:49;;;;;;;23.63;5.18;;;;;;;23.90;53.74;98466.06;5137433;28;20106;-71
2022/06/19 05:46:41;;;;;;;24.02;4.88;;;;;;;24.03;53.24;98453.31;5140098;28;20062;-71
2022/06/19 05:49:34;;;;;;;21.40;5.43;;;;;;;24.41;51.30;98451.81;5139458;28;20132;-71
2022/06/19 05:52:24;;;;;;;20.00;4.20;;;;;;;24.50;51.56;98461.16;5139601;28;20125;-71
2022/06/19 05:55:15;;;;;;;18.23;4.63;;;;;;;24.57;51.38;98467.25;5140455;28;20049;-71
2022/06/19 05:58:05;;;;;;;25.23;5.70;;;;;;;24.94;49.81;98447.72;5138527;28;20069;-71
2022/06/19 06:00:55;;;;;;;18.83;4.80;;;;;;;24.92;50.15;98444.44;5139665;28;20067;-71
2022/06/19 06:03:46;;;;;;;19.73;4.30;;;;;;;25.08;50.42;98441.66;5139055;28;20050;-72
2022/06/19 06:06:40;;;;;;;19.58;4.65;;;;;;;25.24;49.89;98448.16;5143169;28;20530;-71
2022/06/19 06:09:30;;;;;;;17.58;4.03;;;;;;;25.41;48.83;98450.78;5139874;28;20066;-71
2022/06/19 06:12:20;;;;;;;15.93;4.30;;;;;;;25.59;48.84;98446.91;5145058;28;20145;-71
2022/06/19 06:15:10;;;;;;;19.38;4.40;;;;;;;25.73;48.66;98448.19;5140471;28;20043;-71
2022/06/19 06:18:02;;;;;;;21.90;4.20;;;;;;;25.74;49.45;98438.13;5136799;28;20058;-74
2022/06/19 06:21:04;;;;;;;24.90;4.65;;;;;;;26.10;47.71;98452.09;5135747;28;21026;-74
2022/06/19 06:23:55;;;;;;;17.75;4.45;;;;;;;26.53;45.41;98432.09;5137585;28;20053;-73
2022/06/19 06:26:45;;;;;;;20.52;4.95;;;;;;;26.37;47.28;98444.72;5138324;28;20729;-76
2022/06/19 06:29:35;;;;;;;19.77;4.45;;;;;;;26.68;46.81;98437.59;5138150;28;20144;-72
2022/06/19 06:32:25;;;;;;;17.00;4.47;;;;;;;26.59;47.61;98443.78;5138489;28;20125;-72
2022/06/19 06:35:15;;;;;;;21.05;4.55;;;;;;;26.88;49.03;98447.78;5136123;28;20050;-71
2022/06/19 06:38:05;;;;;;;24.33;5.25;;;;;;;26.88;46.09;98452.41;5134621;28;20065;-74
2022/06/19 06:40:56;;;;;;;23.38;4.55;;;;;;;27.09;44.98;98454.19;5148067;28;20055;-72
2022/06/19 06:43:48;;;;;;;20.08;4.68;;;;;;;27.45;45.35;98448.94;5146079;28;20047;-75
2022/06/19 06:46:38;;;;;;;23.73;4.35;;;;;;;27.36;46.10;98431.47;5132810;28;20514;-73
2022/06/19 06:49:30;;;;;;;19.13;4.18;;;;;;;27.60;48.89;98454.41;5139872;28;20553;-71
2022/06/19 06:52:20;;;;;;;25.45;4.88;;;;;;;28.33;43.69;98426.19;5139802;28;20109;-73
2022/06/19 06:55:12;;;;;;;21.40;5.30;;;;;;;29.39;43.47;98451.66;5135735;28;20121;-72
2022/06/19 06:58:03;;;;;;;26.38;4.50;;;;;;;30.10;41.73;98450.47;5138736;28;20587;-73
2022/06/19 07:00:54;;;;;;;24.58;4.70;;;;;;;30.82;40.85;98447.16;5138217;28;20054;-72
2022/06/19 07:03:47;;;;;;;24.13;5.25;;;;;;;31.43;38.16;98445.66;5134204;28;20158;-71
2022/06/19 07:06:37;;;;;;;18.52;4.40;;;;;;;31.83;36.22;98449.78;5147349;28;20053;-74
2022/06/19 07:09:27;;;;;;;24.95;5.32;;;;;;;32.01;36.22;98448.16;5146703;28;20066;-73
2022/06/19 07:12:18;;;;;;;19.77;4.68;;;;;;;32.66;34.99;98447.41;5141526;28;20070;-73
2022/06/19 07:15:11;;;;;;;20.88;4.13;;;;;;;33.51;34.77;98445.22;5145844;28;20166;-74
2022/06/19 07:18:01;;;;;;;23.75;4.25;;;;;;;33.64;33.31;98434.22;5139236;28;20070;-74
2022/06/19 07:20:52;;;;;;;22.20;5.47;;;;;;;33.51;34.65;98432.31;5140663;28;20564;-72
2022/06/19 07:23:42;;;;;;;16.55;4.57;;;;;;;33.97;33.17;98439.50;5138984;28;20101;-75
2022/06/19 07:26:33;;;;;;;22.30;4.13;;;;;;;33.44;33.64;98442.84;5139473;28;20049;-71
2022/06/19 07:29:24;;;;;;;24.38;4.47;;;;;;;33.61;33.33;98437.59;5137536;28;20145;-70
2022/06/19 07:32:14;;;;;;;26.73;5.28;;;;;;;33.39;34.59;98432.00;5140567;28;20051;-74
2022/06/19 07:35:05;;;;;;;24.23;4.90;;;;;;;33.03;35.61;98429.16;5136386;28;20043;-72
2022/06/19 07:37:55;;;;;;;20.30;4.30;;;;;;;32.60;34.19;98421.97;5137528;28;20411;-74
2022/06/19 07:40:45;;;;;;;14.65;3.95;;;;;;;32.96;35.30;98426.81;5137641;28;20061;-73
2022/06/19 07:43:38;;;;;;;22.95;4.65;;;;;;;32.61;35.28;98429.06;5137300;28;20528;-73
2022/06/19 07:46:28;;;;;;;23.27;4.60;;;;;;;32.08;36.51;98431.31;5138805;28;20547;-76
2022/06/19 07:52:47;;;;;;;28.73;5.88;;;;;;;34.17;34.38;98440.97;5128686;28;20055;-75
2022/06/19 07:55:39;;;;;;;23.35;5.68;;;;;;;33.95;35.13;98429.97;5138771;28;20058;-74
2022/06/19 07:58:29;;;;;;;20.98;5.95;;;;;;;33.92;33.83;98443.19;5143409;28;20556;-76
2022/06/19 08:01:19;;;;;;;20.55;5.28;;;;;;;34.91;33.42;98429.47;5142012;28;20193;-74
2022/06/19 08:04:09;;;;;;;22.52;6.00;;;;;;;35.96;31.53;98442.41;5142805;28;20054;-74
2022/06/19 08:06:59;;;;;;;23.50;5.40;;;;;;;36.04;31.23;98418.72;5138899;28;20070;-71
2022/06/19 08:09:50;;;;;;;22.83;5.63;;;;;;;36.34;31.36;98430.72;5143363;28;20417;-74
2022/06/19 08:12:40;;;;;;;21.88;5.45;;;;;;;36.16;29.09;98437.38;5152226;28;20092;-73
2022/06/19 08:15:33;;;;;;;24.35;5.38;;;;;;;36.69;29.88;98438.94;5137284;28;20649;-72
2022/06/19 08:18:25;;;;;;;22.42;5.47;;;;;;;36.89;30.72;98442.94;5136296;28;20046;-72
2022/06/19 08:21:15;;;;;;;27.63;5.57;;;;;;;37.44;30.55;98433.78;5143596;28;20066;-73
2022/06/19 08:24:05;;;;;;;22.17;6.05;;;;;;;37.65;29.57;98432.97;5138237;28;20093;-72
2022/06/19 08:27:14;;;;;;;23.02;5.07;;;;;;;37.52;29.89;98426.59;5142755;28;20131;-73
2022/06/19 08:30:07;;;;;;;26.00;5.32;;;;;;;37.85;27.80;98427.47;5140602;28;20051;-71
2022/06/19 08:32:57;;;;;;;29.70;5.73;;;;;;;37.28;26.99;98413.34;5139530;28;20113;-73
2022/06/19 08:35:53;;;;;;;24.95;5.63;;;;;;;37.36;31.88;98424.34;5137504;28;20058;-73
2022/06/19 08:38:51;;;;;;;21.95;5.93;;;;;;;38.13;28.93;98396.47;5140794;28;20057;-70
2022/06/19 08:41:44;;;;;;;25.00;4.97;;;;;;;38.38;26.64;98414.00;5142946;28;20187;-72
2022/06/19 08:45:07;;;;;;;27.70;5.82;;;;;;;38.51;25.94;98414.84;5140516;28;20117;-70
2022/06/19 08:48:04;;;;;;;26.27;5.68;;;;;;;38.41;26.95;98420.81;5135197;28;20070;-72
2022/06/19 08:50:57;;;;;;;29.90;5.95;;;;;;;38.64;28.22;98413.69;5135761;28;20062;-73
2022/06/19 08:53:58;;;;;;;23.70;6.03;;;;;;;38.76;27.62;98424.00;5139359;28;20544;-73
2022/06/19 08:57:27;;;;;;;22.73;6.28;;;;;;;38.31;28.59;98422.84;5141106;28;20054;-72
2022/06/19 09:00:26;;;;;;;17.52;5.97;;;;;;;38.42;27.25;98417.72;5133769;28;20648;-73
2022/06/19 09:03:25;;;;;;;20.77;5.70;;;;;;;38.92;26.97;98426.94;5141186;28;20101;-71
2022/06/19 09:06:25;;;;;;;17.83;5.90;;;;;;;39.11;29.35;98434.69;5136770;28;20043;-74
2022/06/19 09:09:37;;;;;;;28.55;6.28;;;;;;;38.23;27.61;98422.91;5135645;28;20085;-74
2022/06/19 09:12:48;;;;;;;24.02;6.22;;;;;;;38.91;29.40;98420.59;5140194;28;20124;-72
2022/06/19 09:15:47;;;;;;;22.50;5.90;;;;;;;38.20;27.38;98412.53;5141990;28;20058;-74
2022/06/19 09:18:42;;;;;;;26.02;5.90;;;;;;;38.97;27.58;98421.16;5138980;28;20062;-74
2022/06/19 09:21:54;;;;;;;21.88;6.57;;;;;;;39.11;29.11;98424.41;5139114;28;20061;-73
2022/06/19 09:25:08;;;;;;;22.20;6.63;;;;;;;39.30;25.92;98414.72;5140820;28;23759;-72
2022/06/19 09:28:05;;;;;;;12.40;6.22;;;;;;;39.06;26.92;98412.75;5138858;28;20053;-72
2022/06/19 09:31:15;;;;;;;19.75;5.55;;;;;;;38.29;26.62;98411.28;5139872;28;20053;-72
2022/06/19 09:34:19;;;;;;;26.95;7.03;;;;;;;38.72;26.79;98418.34;5137181;28;20047;-71
2022/06/19 09:37:13;;;;;;;;;;;;;;;39.42;24.20;98415.50;5140170;28;20065;-70
2022/06/19 09:40:10;;;;;;;23.58;6.20;;;;;;;39.63;26.77;98403.44;5134118;28;19932;-72
2022/06/19 09:43:22;;;;;;;16.58;5.95;;;;;;;39.89;28.27;98406.63;5138603;28;20130;-72
2022/06/19 09:46:18;;;;;;;19.70;5.95;;;;;;;40.39;24.41;98394.16;5137155;28;20474;-74
2022/06/19 09:49:22;;;;;;;14.40;5.80;;;;;;;40.36;27.55;98385.72;5139946;28;20066;-72
2022/06/19 09:52:18;;;;;;;14.75;6.40;;;;;;;40.24;27.76;98386.63;5145292;28;20228;-74
2022/06/19 09:55:34;;;;;;;18.25;6.95;;;;;;;40.83;27.71;98384.97;5136696;28;20162;-74
2022/06/19 09:58:35;;;;;;;19.67;6.20;;;;;;;40.80;22.77;98375.41;5136442;28;20430;-73
2022/06/19 10:01:26;;;;;;;15.20;6.60;;;;;;;40.16;23.15;98374.50;5135054;28;20059;-76
2022/06/19 10:04:34;;;;;;;17.13;5.93;;;;;;;38.64;24.46;98366.59;5138238;28;20132;-72
2022/06/19 10:07:51;;;;;;;17.00;5.80;;;;;;;38.91;24.76;98339.41;5138647;28;20050;-73
2022/06/19 10:10:51;;;;;;;12.38;5.47;;;;;;;38.44;25.09;98365.53;5133118;28;20050;-70
2022/06/19 10:14:00;;;;;;;25.98;5.82;;;;;;;39.84;25.18;98370.00;5139561;28;20456;-73
2022/06/19 10:16:59;;;;;;;17.17;5.70;;;;;;;38.85;23.63;98374.06;5140671;28;20136;-72
2022/06/19 10:20:08;;;;;;;20.52;5.63;;;;;;;37.72;22.61;98361.34;5138196;28;20101;-72
2022/06/19 10:23:20;;;;;;;19.75;5.45;;;;;;;37.86;23.00;98367.41;5138166;28;20068;-74
2022/06/19 10:26:33;;;;;;;17.23;6.22;;;;;;;37.43;23.67;98367.72;5137856;28;20050;-76
2022/06/19 10:29:41;;;;;;;14.32;5.28;;;;;;;37.48;23.07;98359.25;5139625;28;20069;-72
2022/06/19 10:32:55;;;;;;;20.15;5.43;;;;;;;38.30;23.12;98352.00;5138571;28;20417;-75
2022/06/19 10:36:06;;;;;;;14.98;5.70;;;;;;;38.53;22.83;98349.63;5139626;28;20057;-75
2022/06/19 10:39:31;;;;;;;19.67;5.28;;;;;;;38.24;23.71;98349.78;5140174;28;20494;-73
2022/06/19 10:42:33;;;;;;;13.80;5.15;;;;;;;37.96;22.74;98341.28;5140599;28;20070;-73
2022/06/19 10:45:35;;;;;;;14.75;5.03;;;;;;;37.86;25.86;98348.03;5136458;28;20058;-78
2022/06/19 10:48:50;;;;;;;17.45;5.00;;;;;;;37.99;22.28;98343.38;5142024;28;20498;-75
2022/06/19 10:51:57;;;;;;;27.80;5.22;;;;;;;38.31;23.70;98336.19;5140104;28;20514;-79
2022/06/19 10:54:50;;;;;;;14.77;5.00;;;;;;;37.76;23.84;98340.94;5123678;28;20051;-74
2022/06/19 10:57:59;;;;;;;16.00;4.95;;;;;;;36.81;23.72;98345.13;5140198;28;20042;-77
2022/06/19 11:00:53;;;;;;;17.00;4.93;;;;;;;37.50;22.49;98345.91;5133157;28;20043;-77
2022/06/19 11:04:07;;;;;;;15.57;5.45;;;;;;;36.76;23.48;98331.53;5123373;28;20534;-75
2022/06/19 11:07:09;;;;;;;14.80;5.25;;;;;;;37.58;22.62;98322.88;5136265;28;20131;-73
2022/06/19 11:10:40;;;;;;;19.73;5.00;;;;;;;37.37;23.86;98333.91;5130439;28;20058;-70
2022/06/19 11:14:09;;;;;;;14.90;4.47;;;;;;;37.99;22.85;98329.53;5136418;28;20289;-70
2022/06/19 11:17:04;;;;;;;15.43;5.03;;;;;;;37.28;24.28;98333.97;5137100;28;20053;-69
2022/06/19 11:19:54;;;;;;;14.88;5.05;;;;;;;37.82;24.02;98334.06;5135076;28;20059;-72
2022/06/19 11:22:46;;;;;;;18.77;5.93;;;;;;;37.99;23.14;98305.44;5140408;28;20054;-72
2022/06/19 11:25:39;;;;;;;16.25;5.65;;;;;;;36.74;23.91;98330.22;5135534;28;20046;-71
2022/06/19 11:29:08;;;;;;;24.20;6.30;;;;;;;36.44;24.40;98336.47;5135999;28;20452;-69
2022/06/19 11:32:06;;;;;;;23.10;6.13;;;;;;;37.66;24.79;98324.78;5129096;28;20398;-71
2022/06/19 11:35:03;;;;;;;16.77;5.25;;;;;;;36.97;24.52;98328.81;5129678;28;20091;-71
2022/06/19 11:37:56;;;;;;;15.43;5.45;;;;;;;36.66;24.34;98326.38;5135346;28;20128;-71
2022/06/19 11:40:49;;;;;;;16.27;5.25;;;;;;;37.49;24.12;98313.88;5138048;28;20073;-72
2022/06/19 11:43:40;;;;;;;11.23;4.75;;;;;;;36.87;24.90;98321.69;5137674;28;20065;-72
2022/06/19 11:46:31;;;;;;;13.18;5.07;;;;;;;37.41;25.36;98321.03;5141900;28;20105;-71
2022/06/19 11:49:26;;;;;;;15.00;5.30;;;;;;;37.05;24.08;98335.44;5137766;28;20050;-72
2022/06/19 11:52:28;;;;;;;18.25;5.43;;;;;;;36.83;24.77;98339.28;5139047;28;20770;-72
2022/06/19 11:55:24;;;;;;;15.45;5.60;;;;;;;36.27;26.17;98321.94;5138407;28;20047;-73
2022/06/19 11:58:35;;;;;;;16.55;6.13;;;;;;;36.73;26.55;98323.91;5137522;28;20077;-72
2022/06/19 12:01:38;;;;;;;19.70;5.45;;;;;;;36.17;24.99;98320.34;5137687;28;20055;-73
2022/06/19 12:04:40;;;;;;;15.23;5.45;;;;;;;37.01;25.71;98306.84;5141303;28;20073;-75
2022/06/19 12:07:35;;;;;;;20.17;6.20;;;;;;;36.56;27.48;98312.91;5144393;28;20521;-72
2022/06/19 12:10:31;;;;;;;16.67;5.70;;;;;;;37.25;26.60;98318.06;5144658;28;20062;-72
2022/06/19 12:13:27;;;;;;;22.55;6.07;;;;;;;35.89;25.85;98317.91;5131817;28;20081;-73
2022/06/19 12:16:23;;;;;;;10.70;5.60;;;;;;;35.47;26.92;98312.09;5132493;28;20117;-71
2022/06/19 12:19:30;;;;;;;12.10;5.50;;;;;;;35.91;27.37;98318.41;5136625;28;20230;-72
2022/06/19 12:22:26;;;;;;;19.48;6.13;;;;;;;36.04;26.58;98313.06;5136269;28;20070;-72
2022/06/19 12:25:28;;;;;;;17.98;5.57;;;;;;;35.95;27.42;98305.56;5137689;28;20103;-73
2022/06/19 12:28:36;;;;;;;13.55;5.93;;;;;;;36.37;26.95;98305.03;5138512;28;20654;-72
2022/06/19 12:31:37;;;;;;;13.85;5.63;;;;;;;36.18;26.20;98302.63;5132474;28;20051;-71
2022/06/19 12:34:34;;;;;;;22.50;6.07;;;;;;;36.33;26.33;98309.59;5138947;28;20069;-71
2022/06/19 12:37:27;;;;;;;14.40;5.22;;;;;;;36.27;25.84;98302.63;5134205;28;20047;-71
2022/06/19 12:40:19;;;;;;;16.33;5.97;;;;;;;36.04;26.37;98297.31;5136934;28;20074;-72
2022/06/19 12:43:31;;;;;;;18.08;5.68;;;;;;;36.12;25.26;98309.47;5140889;28;20793;-74
2022/06/19 12:46:53;;;;;;;19.08;6.07;;;;;;;35.76;26.84;98291.34;5133835;28;20458;-72
2022/06/19 12:50:21;;;;;;;16.17;5.85;;;;;;;36.43;26.85;98298.97;5141321;28;20532;-72
2022/06/19 12:53:24;;;;;;;18.08;5.90;;;;;;;36.59;26.16;98302.03;5139762;28;20181;-74
2022/06/19 12:56:16;;;;;;;18.70;5.70;;;;;;;36.67;26.12;98294.84;5140529;28;20417;-73
2022/06/19 12:59:23;;;;;;;18.23;5.63;;;;;;;36.16;26.84;98293.88;5138813;28;20047;-70
2022/06/19 13:02:42;;;;;;;21.50;5.72;;;;;;;35.97;26.85;98284.00;5139216;28;20422;-71
2022/06/19 13:05:51;;;;;;;18.00;5.83;;;;;;;36.03;27.70;98286.59;5140670;28;20129;-74
2022/06/19 13:09:04;;;;;;;11.93;6.20;;;;;;;36.24;27.08;98279.25;5138066;28;20414;-72
2022/06/19 13:12:18;;;;;;;12.95;5.72;;;;;;;35.91;27.50;98274.28;5136154;28;20541;-70
2022/06/19 13:15:20;;;;;;;;;;;;;;;35.47;27.46;98279.03;5141559;28;20077;-71
2022/06/19 13:18:35;;;;;;;16.50;6.45;;;;;;;35.80;26.83;98281.28;5137899;28;19937;-74
2022/06/19 13:21:38;;;;;;;15.25;6.22;;;;;;;36.15;26.57;98278.47;5136683;28;20054;-73
2022/06/19 13:24:50;;;;;;;17.23;5.80;;;;;;;36.25;26.30;98272.56;5139423;28;20413;-74
2022/06/19 13:28:01;;;;;;;17.40;5.88;;;;;;;36.21;27.19;98268.88;5140463;28;20425;-71
2022/06/19 13:31:04;;;;;;;23.23;6.28;;;;;;;36.24;27.23;98259.94;5136811;28;20110;-70
2022/06/19 13:34:25;;;;;;;22.73;6.43;;;;;;;35.94;26.58;98259.81;5142737;28;20050;-73
2022/06/19 13:37:51;;;;;;;18.10;5.95;;;;;;;36.19;26.89;98249.88;5138850;28;20136;-74
2022/06/19 13:40:47;;;;;;;16.55;6.78;;;;;;;36.25;26.71;98250.50;5141788;28;20050;-74
2022/06/19 13:44:15;;;;;;;18.48;6.22;;;;;;;36.68;27.21;98243.97;5138659;28;20057;-72
2022/06/19 13:47:30;;;;;;;16.15;6.30;;;;;;;36.44;28.17;98248.13;5139099;28;20061;-73
2022/06/19 13:50:32;;;;;;;17.92;6.05;;;;;;;35.73;27.46;98247.84;5137774;28;20062;-73